sensor_id;sensor_type;location;lat;lon;timestamp;noise_LAeq;noise_LA_min;noise_LA_max;noise_LA01;noise_LA95
59284;Laerm;45056;47.602;9.886;2023-10-09T00:00:07;41.08;32.35;55.14;;
59284;Laerm;45056;47.602;9.886;2023-10-09T00:03:03;40.23;32.35;53.83;;
59284;Laerm;45056;47.602;9.886;2023-10-09T00:05:33;37.88;33.44;41.14;;
59284;Laerm;45056;47.602;9.886;2023-10-09T00:08:14;37.50;33.44;40.33;;
59284;Laerm;45056;47.602;9.886;2023-10-09T00:10:49;37.72;32.35;41.14;;
59284;Laerm;45056;47.602;9.886;2023-10-09T00:13:22;41.23;33.90;56.13;;
59284;Laerm;45056;47.602;9.886;2023-10-09T00:15:55;39.15;33.90;52.81;;
59284;Laerm;45056;47.602;9.886;2023-10-09T00:18:28;38.44;33.90;42.16;;
59284;Laerm;45056;47.602;9.886;2023-10-09T00:21:01;40.51;34.69;50.29;;
59284;Laerm;45056;47.602;9.886;2023-10-09T00:23:37;38.98;33.44;46.84;;
59284;Laerm;45056;47.602;9.886;2023-10-09T00:26:04;38.30;33.55;42.16;;
59284;Laerm;45056;47.602;9.886;2023-10-09T00:28:39;37.87;32.93;40.53;;
59284;Laerm;45056;47.602;9.886;2023-10-09T00:31:11;40.22;34.31;56.59;;
59284;Laerm;45056;47.602;9.886;2023-10-09T00:33:42;38.81;34.31;42.98;;
59284;Laerm;45056;47.602;9.886;2023-10-09T00:36:11;38.57;33.44;42.03;;
59284;Laerm;45056;47.602;9.886;2023-10-09T00:38:44;38.02;33.44;40.80;;
59284;Laerm;45056;47.602;9.886;2023-10-09T00:41:15;39.04;34.31;44.47;;
59284;Laerm;45056;47.602;9.886;2023-10-09T00:43:50;39.30;34.31;42.76;;
59284;Laerm;45056;47.602;9.886;2023-10-09T00:46:21;42.03;35.04;58.87;;
59284;Laerm;45056;47.602;9.886;2023-10-09T00:48:57;38.19;34.31;41.06;;
59284;Laerm;45056;47.602;9.886;2023-10-09T00:51:29;38.36;33.44;41.30;;
59284;Laerm;45056;47.602;9.886;2023-10-09T00:54:05;38.63;33.90;45.27;;
59284;Laerm;45056;47.602;9.886;2023-10-09T00:56:42;39.08;34.69;43.94;;
59284;Laerm;45056;47.602;9.886;2023-10-09T00:59:21;38.24;32.93;40.89;;
59284;Laerm;45056;47.602;9.886;2023-10-09T01:01:51;48.11;35.36;63.68;;
59284;Laerm;45056;47.602;9.886;2023-10-09T01:04:25;39.41;34.31;44.07;;
59284;Laerm;45056;47.602;9.886;2023-10-09T01:06:57;41.68;35.36;56.99;;
59284;Laerm;45056;47.602;9.886;2023-10-09T01:09:35;38.60;33.90;43.09;;
59284;Laerm;45056;47.602;9.886;2023-10-09T01:12:05;39.04;31.68;42.88;;
59284;Laerm;45056;47.602;9.886;2023-10-09T01:14:34;38.42;33.90;41.75;;
59284;Laerm;45056;47.602;9.886;2023-10-09T01:17:04;40.30;34.31;54.19;;
59284;Laerm;45056;47.602;9.886;2023-10-09T01:19:36;39.89;34.31;51.05;;
59284;Laerm;45056;47.602;9.886;2023-10-09T01:22:04;38.74;33.90;42.19;;
59284;Laerm;45056;47.602;9.886;2023-10-09T01:24:40;39.00;33.44;45.45;;
59284;Laerm;45056;47.602;9.886;2023-10-09T01:27:09;39.21;33.44;44.54;;
59284;Laerm;45056;47.602;9.886;2023-10-09T01:29:42;39.25;33.90;47.88;;
59284;Laerm;45056;47.602;9.886;2023-10-09T01:32:10;41.01;33.90;58.43;;
59284;Laerm;45056;47.602;9.886;2023-10-09T01:34:43;42.57;34.31;57.41;;
59284;Laerm;45056;47.602;9.886;2023-10-09T01:37:17;38.33;34.31;42.88;;
59284;Laerm;45056;47.602;9.886;2023-10-09T01:39:51;38.10;33.44;45.14;;
59284;Laerm;45056;47.602;9.886;2023-10-09T01:42:21;38.16;32.93;47.44;;
59284;Laerm;45056;47.602;9.886;2023-10-09T01:44:54;40.39;34.31;53.29;;
59284;Laerm;45056;47.602;9.886;2023-10-09T01:47:24;41.14;33.90;56.71;;
59284;Laerm;45056;47.602;9.886;2023-10-09T01:49:58;40.01;32.93;57.63;;
59284;Laerm;45056;47.602;9.886;2023-10-09T01:52:31;40.75;34.69;50.57;;
59284;Laerm;45056;47.602;9.886;2023-10-09T01:55:05;37.88;32.93;41.46;;
59284;Laerm;45056;47.602;9.886;2023-10-09T01:57:55;39.88;32.35;52.00;;
59284;Laerm;45056;47.602;9.886;2023-10-09T02:00:24;44.50;34.31;58.16;;
59284;Laerm;45056;47.602;9.886;2023-10-09T02:02:55;40.27;35.04;44.90;;
59284;Laerm;45056;47.602;9.886;2023-10-09T02:05:29;39.60;35.36;44.03;;
59284;Laerm;45056;47.602;9.886;2023-10-09T02:08:00;48.53;34.69;67.39;;
59284;Laerm;45056;47.602;9.886;2023-10-09T02:10:32;40.37;34.69;51.59;;
59284;Laerm;45056;47.602;9.886;2023-10-09T02:13:03;38.59;34.69;41.75;;
59284;Laerm;45056;47.602;9.886;2023-10-09T02:15:35;40.78;35.04;55.25;;
59284;Laerm;45056;47.602;9.886;2023-10-09T02:18:21;39.36;34.69;49.02;;
59284;Laerm;45056;47.602;9.886;2023-10-09T02:21:08;41.39;35.04;52.46;;
59284;Laerm;45056;47.602;9.886;2023-10-09T02:23:42;38.97;34.69;44.58;;
59284;Laerm;45056;47.602;9.886;2023-10-09T02:26:19;38.60;33.44;43.29;;
59284;Laerm;45056;47.602;9.886;2023-10-09T02:28:53;42.08;35.36;57.27;;
59284;Laerm;45056;47.602;9.886;2023-10-09T02:31:27;42.07;35.36;57.52;;
59284;Laerm;45056;47.602;9.886;2023-10-09T02:34:02;40.91;35.04;50.07;;
59284;Laerm;45056;47.602;9.886;2023-10-09T02:36:38;40.48;35.04;54.58;;
59284;Laerm;45056;47.602;9.886;2023-10-09T02:39:08;40.53;36.20;45.17;;
59284;Laerm;45056;47.602;9.886;2023-10-09T02:41:51;42.47;36.69;57.19;;
59284;Laerm;45056;47.602;9.886;2023-10-09T02:44:21;40.05;35.94;44.27;;
59284;Laerm;45056;47.602;9.886;2023-10-09T02:46:54;45.15;37.32;60.82;;
59284;Laerm;45056;47.602;9.886;2023-10-09T02:49:24;42.78;35.66;54.30;;
59284;Laerm;45056;47.602;9.886;2023-10-09T02:51:54;42.73;36.20;54.06;;
59284;Laerm;45056;47.602;9.886;2023-10-09T02:54:22;46.80;36.91;60.12;;
59284;Laerm;45056;47.602;9.886;2023-10-09T02:57:03;41.90;37.32;54.63;;
59284;Laerm;45056;47.602;9.886;2023-10-09T02:59:34;42.53;36.69;53.93;;
59284;Laerm;45056;47.602;9.886;2023-10-09T03:02:05;45.72;36.91;61.68;;
59284;Laerm;45056;47.602;9.886;2023-10-09T03:04:34;42.88;36.91;53.88;;
59284;Laerm;45056;47.602;9.886;2023-10-09T03:07:02;45.03;36.91;57.81;;
59284;Laerm;45056;47.602;9.886;2023-10-09T03:09:31;48.99;38.47;67.29;;
59284;Laerm;45056;47.602;9.886;2023-10-09T03:12:04;42.32;38.05;53.01;;
59284;Laerm;45056;47.602;9.886;2023-10-09T03:14:38;45.22;39.21;61.18;;
59284;Laerm;45056;47.602;9.886;2023-10-09T03:17:07;44.22;38.37;55.62;;
59284;Laerm;45056;47.602;9.886;2023-10-09T03:19:38;44.60;35.66;57.99;;
59284;Laerm;45056;47.602;9.886;2023-10-09T03:22:07;44.90;38.37;55.77;;
59284;Laerm;45056;47.602;9.886;2023-10-09T03:24:37;44.75;36.91;56.95;;
59284;Laerm;45056;47.602;9.886;2023-10-09T03:27:07;45.38;38.52;59.85;;
59284;Laerm;45056;47.602;9.886;2023-10-09T03:29:35;42.70;38.21;53.32;;
59284;Laerm;45056;47.602;9.886;2023-10-09T03:32:03;46.29;38.52;59.54;;
59284;Laerm;45056;47.602;9.886;2023-10-09T03:34:33;49.07;37.52;65.57;;
59284;Laerm;45056;47.602;9.886;2023-10-09T03:37:01;43.55;38.37;57.98;;
59284;Laerm;45056;47.602;9.886;2023-10-09T03:39:38;46.46;40.89;56.92;;
59284;Laerm;45056;47.602;9.886;2023-10-09T03:42:09;44.79;38.05;55.40;;
59284;Laerm;45056;47.602;9.886;2023-10-09T03:44:46;44.09;38.67;53.77;;
59284;Laerm;45056;47.602;9.886;2023-10-09T03:47:19;48.48;39.21;62.23;;
59284;Laerm;45056;47.602;9.886;2023-10-09T03:49:49;48.14;39.81;63.00;;
59284;Laerm;45056;47.602;9.886;2023-10-09T03:52:20;48.50;41.38;63.38;;
59284;Laerm;45056;47.602;9.886;2023-10-09T03:54:52;47.20;39.92;58.54;;
59284;Laerm;45056;47.602;9.886;2023-10-09T03:57:21;45.89;39.78;58.59;;
59284;Laerm;45056;47.602;9.886;2023-10-09T03:59:50;45.42;39.34;57.56;;
59284;Laerm;45056;47.602;9.886;2023-10-09T04:02:18;49.33;39.34;63.87;;
59284;Laerm;45056;47.602;9.886;2023-10-09T04:04:49;57.41;41.30;71.28;;
59284;Laerm;45056;47.602;9.886;2023-10-09T04:07:17;45.24;39.46;55.87;;
59284;Laerm;45056;47.602;9.886;2023-10-09T04:09:45;45.83;39.81;58.70;;
59284;Laerm;45056;47.602;9.886;2023-10-09T04:12:15;46.05;38.81;56.56;;
59284;Laerm;45056;47.602;9.886;2023-10-09T04:14:53;44.73;38.67;56.73;;
59284;Laerm;45056;47.602;9.886;2023-10-09T04:17:24;48.14;37.88;64.86;;
59284;Laerm;45056;47.602;9.886;2023-10-09T04:20:03;45.08;39.81;55.79;;
59284;Laerm;45056;47.602;9.886;2023-10-09T04:22:57;47.21;39.58;61.00;;
59284;Laerm;45056;47.602;9.886;2023-10-09T04:25:32;44.78;40.71;54.17;;
59284;Laerm;45056;47.602;9.886;2023-10-09T04:28:10;47.81;38.67;62.72;;
59284;Laerm;45056;47.602;9.886;2023-10-09T04:30:47;49.97;40.53;60.85;;
59284;Laerm;45056;47.602;9.886;2023-10-09T04:33:20;44.02;39.46;53.75;;
59284;Laerm;45056;47.602;9.886;2023-10-09T04:36:02;51.43;39.08;69.82;;
59284;Laerm;45056;47.602;9.886;2023-10-09T04:38:43;46.65;39.08;59.30;;
59284;Laerm;45056;47.602;9.886;2023-10-09T04:41:22;46.78;39.92;56.21;;
59284;Laerm;45056;47.602;9.886;2023-10-09T04:43:54;48.63;41.06;59.24;;
59284;Laerm;45056;47.602;9.886;2023-10-09T04:46:44;47.66;40.80;57.81;;
59284;Laerm;45056;47.602;9.886;2023-10-09T04:49:11;47.06;40.62;58.23;;
59284;Laerm;45056;47.602;9.886;2023-10-09T04:51:54;46.24;38.95;57.09;;
59284;Laerm;45056;47.602;9.886;2023-10-09T04:54:32;48.74;40.23;59.43;;
59284;Laerm;45056;47.602;9.886;2023-10-09T04:57:27;49.22;40.33;62.89;;
59284;Laerm;45056;47.602;9.886;2023-10-09T04:59:56;47.93;40.62;57.93;;
59284;Laerm;45056;47.602;9.886;2023-10-09T05:02:26;49.47;41.06;58.88;;
59284;Laerm;45056;47.602;9.886;2023-10-09T05:05:04;48.57;40.62;59.80;;
59284;Laerm;45056;47.602;9.886;2023-10-09T05:08:04;47.64;40.79;57.95;;
59284;Laerm;45056;47.602;9.886;2023-10-09T05:10:46;47.07;41.14;54.97;;
59284;Laerm;45056;47.602;9.886;2023-10-09T05:13:33;46.94;40.03;58.13;;
59284;Laerm;45056;47.602;9.886;2023-10-09T05:16:13;47.81;40.98;64.60;;
59284;Laerm;45056;47.602;9.886;2023-10-09T05:18:45;50.48;41.06;63.39;;
59284;Laerm;45056;47.602;9.886;2023-10-09T05:21:22;48.63;41.96;60.56;;
59284;Laerm;45056;47.602;9.886;2023-10-09T05:24:05;47.74;39.81;61.56;;
59284;Laerm;45056;47.602;9.886;2023-10-09T05:26:44;48.28;42.09;59.78;;
59284;Laerm;45056;47.602;9.886;2023-10-09T05:29:20;48.63;42.53;60.42;;
59284;Laerm;45056;47.602;9.886;2023-10-09T05:32:03;48.00;41.68;58.35;;
59284;Laerm;45056;47.602;9.886;2023-10-09T05:34:35;48.42;41.14;64.89;;
59284;Laerm;45056;47.602;9.886;2023-10-09T05:37:22;50.00;42.16;63.45;;
59284;Laerm;45056;47.602;9.886;2023-10-09T05:39:52;50.11;43.54;57.54;;
59284;Laerm;45056;47.602;9.886;2023-10-09T05:42:46;49.72;41.61;62.48;;
59284;Laerm;45056;47.602;9.886;2023-10-09T05:45:24;49.00;43.34;57.66;;
59284;Laerm;45056;47.602;9.886;2023-10-09T05:48:12;50.16;44.19;60.63;;
59284;Laerm;45056;47.602;9.886;2023-10-09T05:50:58;49.09;43.77;60.80;;
59284;Laerm;45056;47.602;9.886;2023-10-09T05:53:46;48.98;42.41;60.27;;
59284;Laerm;45056;47.602;9.886;2023-10-09T05:56:31;51.32;42.98;69.33;;
59284;Laerm;45056;47.602;9.886;2023-10-09T05:59:22;49.10;42.53;59.81;;
59284;Laerm;45056;47.602;9.886;2023-10-09T06:02:22;49.37;41.61;59.47;;
59284;Laerm;45056;47.602;9.886;2023-10-09T06:05:08;48.40;42.29;58.64;;
59284;Laerm;45056;47.602;9.886;2023-10-09T06:08:08;46.71;40.71;58.07;;
59284;Laerm;45056;47.602;9.886;2023-10-09T06:10:39;47.70;41.96;65.20;;
59284;Laerm;45056;47.602;9.886;2023-10-09T06:13:09;49.03;41.53;61.10;;
59284;Laerm;45056;47.602;9.886;2023-10-09T06:15:51;48.09;40.80;66.08;;
59284;Laerm;45056;47.602;9.886;2023-10-09T06:18:36;47.66;40.98;55.71;;
59284;Laerm;45056;47.602;9.886;2023-10-09T06:21:08;51.37;42.09;64.80;;
59284;Laerm;45056;47.602;9.886;2023-10-09T06:23:59;50.03;41.82;63.16;;
59284;Laerm;45056;47.602;9.886;2023-10-09T06:26:43;50.79;41.75;64.05;;
59284;Laerm;45056;47.602;9.886;2023-10-09T06:29:42;50.45;41.14;65.27;;
59284;Laerm;45056;47.602;9.886;2023-10-09T06:32:40;48.40;40.53;59.71;;
59284;Laerm;45056;47.602;9.886;2023-10-09T06:35:18;47.27;40.62;59.37;;
59284;Laerm;45056;47.602;9.886;2023-10-09T06:37:50;47.38;41.30;54.83;;
59284;Laerm;45056;47.602;9.886;2023-10-09T06:40:39;47.28;41.55;55.45;;
59284;Laerm;45056;47.602;9.886;2023-10-09T06:43:23;48.01;41.38;61.43;;
59284;Laerm;45056;47.602;9.886;2023-10-09T06:45:56;49.81;42.03;61.69;;
59284;Laerm;45056;47.602;9.886;2023-10-09T06:48:45;51.03;42.29;75.03;;
59284;Laerm;45056;47.602;9.886;2023-10-09T06:51:22;50.74;42.93;70.80;;
59284;Laerm;45056;47.602;9.886;2023-10-09T06:54:08;47.99;40.62;60.45;;
59284;Laerm;45056;47.602;9.886;2023-10-09T06:56:37;48.62;42.71;56.42;;
59284;Laerm;45056;47.602;9.886;2023-10-09T06:59:23;46.35;41.53;55.12;;
59284;Laerm;45056;47.602;9.886;2023-10-09T07:02:08;50.48;41.06;61.66;;
59284;Laerm;45056;47.602;9.886;2023-10-09T07:04:54;47.15;40.80;60.02;;
59284;Laerm;45056;47.602;9.886;2023-10-09T07:07:37;52.53;41.75;62.81;;
59284;Laerm;45056;47.602;9.886;2023-10-09T07:10:17;48.16;39.92;60.16;;
59284;Laerm;45056;47.602;9.886;2023-10-09T07:12:57;46.96;40.33;57.02;;
59284;Laerm;45056;47.602;9.886;2023-10-09T07:15:25;49.69;41.46;59.90;;
59284;Laerm;45056;47.602;9.886;2023-10-09T07:18:10;47.20;40.71;58.76;;
59284;Laerm;45056;47.602;9.886;2023-10-09T07:20:50;48.18;41.82;58.35;;
59284;Laerm;45056;47.602;9.886;2023-10-09T07:23:28;48.47;40.80;61.92;;
59284;Laerm;45056;47.602;9.886;2023-10-09T07:26:04;49.30;43.14;61.70;;
59284;Laerm;45056;47.602;9.886;2023-10-09T07:28:47;51.91;43.44;70.19;;
59284;Laerm;45056;47.602;9.886;2023-10-09T07:31:20;47.33;41.22;57.57;;
59284;Laerm;45056;47.602;9.886;2023-10-09T07:33:56;50.93;42.22;64.51;;
59284;Laerm;45056;47.602;9.886;2023-10-09T07:36:24;49.70;42.82;60.20;;
59284;Laerm;45056;47.602;9.886;2023-10-09T07:39:06;45.96;40.98;57.59;;
59284;Laerm;45056;47.602;9.886;2023-10-09T07:41:44;48.72;40.89;62.46;;
59284;Laerm;45056;47.602;9.886;2023-10-09T07:44:24;49.03;42.09;58.82;;
59284;Laerm;45056;47.602;9.886;2023-10-09T07:47:10;48.86;41.68;61.61;;
59284;Laerm;45056;47.602;9.886;2023-10-09T07:49:45;49.98;41.14;63.22;;
59284;Laerm;45056;47.602;9.886;2023-10-09T07:52:22;52.25;44.19;65.15;;
59284;Laerm;45056;47.602;9.886;2023-10-09T07:54:52;49.40;42.16;61.67;;
59284;Laerm;45056;47.602;9.886;2023-10-09T07:57:28;47.17;41.06;54.72;;
59284;Laerm;45056;47.602;9.886;2023-10-09T08:00:07;47.14;42.03;56.51;;
59284;Laerm;45056;47.602;9.886;2023-10-09T08:03:00;49.34;41.30;61.50;;
59284;Laerm;45056;47.602;9.886;2023-10-09T08:05:30;46.86;41.75;56.86;;
59284;Laerm;45056;47.602;9.886;2023-10-09T08:08:02;65.18;41.53;85.12;;
59284;Laerm;45056;47.602;9.886;2023-10-09T08:11:07;49.44;41.14;64.85;;
59284;Laerm;45056;47.602;9.886;2023-10-09T08:14:01;46.21;40.43;55.18;;
59284;Laerm;45056;47.602;9.886;2023-10-09T08:16:31;47.54;40.62;58.49;;
59284;Laerm;45056;47.602;9.886;2023-10-09T08:19:05;49.88;42.22;62.19;;
59284;Laerm;45056;47.602;9.886;2023-10-09T08:22:00;49.74;42.03;65.42;;
59284;Laerm;45056;47.602;9.886;2023-10-09T08:24:42;53.84;43.94;68.38;;
59284;Laerm;45056;47.602;9.886;2023-10-09T08:27:19;50.14;42.03;65.78;;
59284;Laerm;45056;47.602;9.886;2023-10-09T08:30:06;48.31;42.29;60.63;;
59284;Laerm;45056;47.602;9.886;2023-10-09T08:32:55;49.31;42.65;62.56;;
59284;Laerm;45056;47.602;9.886;2023-10-09T08:35:28;49.18;40.98;63.62;;
59284;Laerm;45056;47.602;9.886;2023-10-09T08:37:59;47.39;41.30;56.25;;
59284;Laerm;45056;47.602;9.886;2023-10-09T08:40:36;48.07;40.62;60.78;;
59284;Laerm;45056;47.602;9.886;2023-10-09T08:43:13;53.25;42.53;79.74;;
59284;Laerm;45056;47.602;9.886;2023-10-09T08:45:46;49.30;41.38;71.92;;
59284;Laerm;45056;47.602;9.886;2023-10-09T08:48:15;47.85;40.98;57.91;;
59284;Laerm;45056;47.602;9.886;2023-10-09T08:50:46;49.28;41.53;65.55;;
59284;Laerm;45056;47.602;9.886;2023-10-09T08:53:17;48.39;42.65;60.62;;
59284;Laerm;45056;47.602;9.886;2023-10-09T08:55:45;47.77;42.88;57.92;;
59284;Laerm;45056;47.602;9.886;2023-10-09T08:58:15;47.69;42.79;60.75;;
59284;Laerm;45056;47.602;9.886;2023-10-09T09:00:48;49.36;41.96;58.04;;
59284;Laerm;45056;47.602;9.886;2023-10-09T09:03:20;48.91;43.04;57.75;;
59284;Laerm;45056;47.602;9.886;2023-10-09T09:05:58;48.06;42.59;59.60;;
59284;Laerm;45056;47.602;9.886;2023-10-09T09:08:33;48.18;41.46;59.33;;
59284;Laerm;45056;47.602;9.886;2023-10-09T09:11:07;47.50;42.35;54.19;;
59284;Laerm;45056;47.602;9.886;2023-10-09T09:13:40;47.39;42.47;58.59;;
59284;Laerm;45056;47.602;9.886;2023-10-09T09:16:17;50.74;42.16;66.24;;
59284;Laerm;45056;47.602;9.886;2023-10-09T09:18:54;53.46;42.71;67.73;;
59284;Laerm;45056;47.602;9.886;2023-10-09T09:21:33;48.70;41.96;58.46;;
59284;Laerm;45056;47.602;9.886;2023-10-09T09:24:10;49.12;42.09;60.92;;
59284;Laerm;45056;47.602;9.886;2023-10-09T09:27:00;47.86;40.79;57.45;;
59284;Laerm;45056;47.602;9.886;2023-10-09T09:29:40;49.65;41.14;61.68;;
59284;Laerm;45056;47.602;9.886;2023-10-09T09:32:11;49.30;40.79;62.74;;
59284;Laerm;45056;47.602;9.886;2023-10-09T09:34:49;46.51;41.46;54.88;;
59284;Laerm;45056;47.602;9.886;2023-10-09T09:37:23;46.56;40.80;55.57;;
59284;Laerm;45056;47.602;9.886;2023-10-09T09:39:59;46.98;40.33;61.60;;
59284;Laerm;45056;47.602;9.886;2023-10-09T09:42:28;48.26;41.82;62.54;;
59284;Laerm;45056;47.602;9.886;2023-10-09T09:45:01;48.52;41.53;62.06;;
59284;Laerm;45056;47.602;9.886;2023-10-09T09:47:31;50.30;41.75;60.56;;
59284;Laerm;45056;47.602;9.886;2023-10-09T09:50:06;50.44;42.47;62.51;;
59284;Laerm;45056;47.602;9.886;2023-10-09T09:52:40;46.55;41.53;55.81;;
59284;Laerm;45056;47.602;9.886;2023-10-09T09:55:11;47.08;40.62;56.36;;
59284;Laerm;45056;47.602;9.886;2023-10-09T09:57:45;45.68;41.06;54.40;;
59284;Laerm;45056;47.602;9.886;2023-10-09T10:00:23;49.22;41.82;57.10;;
59284;Laerm;45056;47.602;9.886;2023-10-09T10:03:05;54.36;42.09;68.24;;
59284;Laerm;45056;47.602;9.886;2023-10-09T10:05:36;59.89;45.48;71.96;;
59284;Laerm;45056;47.602;9.886;2023-10-09T10:08:08;46.94;42.03;58.22;;
59284;Laerm;45056;47.602;9.886;2023-10-09T10:10:41;46.84;41.30;56.51;;
59284;Laerm;45056;47.602;9.886;2023-10-09T10:13:16;46.65;40.98;55.70;;
59284;Laerm;45056;47.602;9.886;2023-10-09T10:16:05;47.32;41.22;61.29;;
59284;Laerm;45056;47.602;9.886;2023-10-09T10:18:56;47.90;41.89;58.55;;
59284;Laerm;45056;47.602;9.886;2023-10-09T10:21:34;47.70;41.22;56.01;;
59284;Laerm;45056;47.602;9.886;2023-10-09T10:24:43;46.19;40.71;56.70;;
59284;Laerm;45056;47.602;9.886;2023-10-09T10:27:22;46.48;40.03;54.43;;
59284;Laerm;45056;47.602;9.886;2023-10-09T10:30:28;48.43;41.75;61.35;;
59284;Laerm;45056;47.602;9.886;2023-10-09T10:33:01;47.56;42.22;56.35;;
59284;Laerm;45056;47.602;9.886;2023-10-09T10:35:37;48.61;40.43;68.78;;
59284;Laerm;45056;47.602;9.886;2023-10-09T10:38:26;47.98;41.75;56.50;;
59284;Laerm;45056;47.602;9.886;2023-10-09T10:41:17;47.61;40.13;55.94;;
59284;Laerm;45056;47.602;9.886;2023-10-09T10:43:47;46.46;40.71;57.19;;
59284;Laerm;45056;47.602;9.886;2023-10-09T10:46:23;48.73;41.96;58.17;;
59284;Laerm;45056;47.602;9.886;2023-10-09T10:49:07;49.35;41.75;61.27;;
59284;Laerm;45056;47.602;9.886;2023-10-09T10:51:48;56.32;41.89;80.51;;
59284;Laerm;45056;47.602;9.886;2023-10-09T10:54:27;53.56;42.09;69.66;;
59284;Laerm;45056;47.602;9.886;2023-10-09T10:57:17;49.50;41.68;61.83;;
59284;Laerm;45056;47.602;9.886;2023-10-09T10:59:58;49.73;42.09;61.22;;
59284;Laerm;45056;47.602;9.886;2023-10-09T11:02:43;49.83;41.75;64.20;;
59284;Laerm;45056;47.602;9.886;2023-10-09T11:05:10;47.82;41.68;58.36;;
59284;Laerm;45056;47.602;9.886;2023-10-09T11:07:57;48.20;41.22;58.19;;
59284;Laerm;45056;47.602;9.886;2023-10-09T11:10:27;50.31;42.82;66.47;;
59284;Laerm;45056;47.602;9.886;2023-10-09T11:12:58;49.37;41.46;62.74;;
59284;Laerm;45056;47.602;9.886;2023-10-09T11:15:45;52.31;40.80;71.32;;
59284;Laerm;45056;47.602;9.886;2023-10-09T11:18:23;45.84;40.33;54.64;;
59284;Laerm;45056;47.602;9.886;2023-10-09T11:20:56;50.25;40.80;77.38;;
59284;Laerm;45056;47.602;9.886;2023-10-09T11:23:45;48.19;40.89;61.08;;
59284;Laerm;45056;47.602;9.886;2023-10-09T11:26:26;45.42;40.18;54.21;;
59284;Laerm;45056;47.602;9.886;2023-10-09T11:29:08;45.96;40.62;54.93;;
59284;Laerm;45056;47.602;9.886;2023-10-09T11:32:02;48.49;41.82;65.05;;
59284;Laerm;45056;47.602;9.886;2023-10-09T11:34:33;48.78;42.71;56.35;;
59284;Laerm;45056;47.602;9.886;2023-10-09T11:37:03;48.48;44.31;56.59;;
59284;Laerm;45056;47.602;9.886;2023-10-09T11:39:39;50.20;43.99;63.88;;
59284;Laerm;45056;47.602;9.886;2023-10-09T11:42:19;50.58;45.36;77.92;;
59284;Laerm;45056;47.602;9.886;2023-10-09T11:45:03;51.26;46.48;60.45;;
59284;Laerm;45056;47.602;9.886;2023-10-09T11:47:49;49.76;45.77;58.51;;
59284;Laerm;45056;47.602;9.886;2023-10-09T11:50:43;50.11;44.69;63.39;;
59284;Laerm;45056;47.602;9.886;2023-10-09T11:53:11;50.42;45.01;67.03;;
59284;Laerm;45056;47.602;9.886;2023-10-09T11:56:02;50.00;44.58;57.98;;
59284;Laerm;45056;47.602;9.886;2023-10-09T11:58:30;50.11;43.58;57.04;;
59284;Laerm;45056;47.602;9.886;2023-10-09T12:00:59;51.21;43.63;60.10;;
59284;Laerm;45056;47.602;9.886;2023-10-09T12:03:32;49.41;43.63;62.52;;
59284;Laerm;45056;47.602;9.886;2023-10-09T12:06:02;50.82;44.03;62.00;;
59284;Laerm;45056;47.602;9.886;2023-10-09T12:08:33;48.78;43.99;60.14;;
59284;Laerm;45056;47.602;9.886;2023-10-09T12:11:03;49.97;44.23;61.53;;
59284;Laerm;45056;47.602;9.886;2023-10-09T12:13:37;52.80;42.58;73.51;;
59284;Laerm;45056;47.602;9.886;2023-10-09T12:16:05;52.29;43.19;65.24;;
59284;Laerm;45056;47.602;9.886;2023-10-09T12:18:37;50.23;42.71;73.79;;
59284;Laerm;45056;47.602;9.886;2023-10-09T12:21:06;49.59;43.04;59.88;;
59284;Laerm;45056;47.602;9.886;2023-10-09T12:23:34;48.04;43.68;55.05;;
59284;Laerm;45056;47.602;9.886;2023-10-09T12:26:02;49.23;43.54;59.10;;
59284;Laerm;45056;47.602;9.886;2023-10-09T12:28:31;52.79;44.27;66.46;;
59284;Laerm;45056;47.602;9.886;2023-10-09T12:31:01;53.36;43.99;65.63;;
59284;Laerm;45056;47.602;9.886;2023-10-09T12:33:29;48.37;43.77;54.32;;
59284;Laerm;45056;47.602;9.886;2023-10-09T12:35:58;50.84;44.07;64.20;;
59284;Laerm;45056;47.602;9.886;2023-10-09T12:38:28;50.01;43.94;61.25;;
59284;Laerm;45056;47.602;9.886;2023-10-09T12:41:03;49.42;44.23;61.73;;
59284;Laerm;45056;47.602;9.886;2023-10-09T12:43:46;48.70;43.97;55.55;;
59284;Laerm;45056;47.602;9.886;2023-10-09T12:46:14;49.77;44.83;63.79;;
59284;Laerm;45056;47.602;9.886;2023-10-09T12:48:43;48.75;42.59;56.36;;
59284;Laerm;45056;47.602;9.886;2023-10-09T12:51:15;52.27;43.68;66.46;;
59284;Laerm;45056;47.602;9.886;2023-10-09T12:53:46;50.98;42.47;66.25;;
59284;Laerm;45056;47.602;9.886;2023-10-09T12:56:15;49.76;43.14;59.71;;
59284;Laerm;45056;47.602;9.886;2023-10-09T12:58:45;48.86;42.88;60.07;;
59284;Laerm;45056;47.602;9.886;2023-10-09T13:01:19;49.71;43.49;61.10;;
59284;Laerm;45056;47.602;9.886;2023-10-09T13:03:47;48.46;43.68;57.66;;
59284;Laerm;45056;47.602;9.886;2023-10-09T13:06:18;49.73;42.76;61.89;;
59284;Laerm;45056;47.602;9.886;2023-10-09T13:08:50;49.21;43.14;55.46;;
59284;Laerm;45056;47.602;9.886;2023-10-09T13:11:18;49.95;43.58;58.19;;
59284;Laerm;45056;47.602;9.886;2023-10-09T13:13:47;48.00;42.98;54.75;;
59284;Laerm;45056;47.602;9.886;2023-10-09T13:16:20;47.25;41.96;58.04;;
59284;Laerm;45056;47.602;9.886;2023-10-09T13:18:51;50.00;42.22;63.83;;
59284;Laerm;45056;47.602;9.886;2023-10-09T13:21:24;49.13;42.71;61.10;;
59284;Laerm;45056;47.602;9.886;2023-10-09T13:23:53;51.99;43.64;71.16;;
59284;Laerm;45056;47.602;9.886;2023-10-09T13:26:22;52.06;43.46;62.94;;
59284;Laerm;45056;47.602;9.886;2023-10-09T13:28:56;52.86;43.86;66.10;;
59284;Laerm;45056;47.602;9.886;2023-10-09T13:31:26;49.72;43.34;59.86;;
59284;Laerm;45056;47.602;9.886;2023-10-09T13:33:55;52.37;43.58;65.18;;
59284;Laerm;45056;47.602;9.886;2023-10-09T13:36:25;49.67;43.81;56.68;;
59284;Laerm;45056;47.602;9.886;2023-10-09T13:39:01;50.91;43.09;72.55;;
59284;Laerm;45056;47.602;9.886;2023-10-09T13:41:48;48.00;41.82;60.88;;
59284;Laerm;45056;47.602;9.886;2023-10-09T13:44:16;50.93;41.89;61.16;;
59284;Laerm;45056;47.602;9.886;2023-10-09T13:46:44;54.57;41.53;66.46;;
59284;Laerm;45056;47.602;9.886;2023-10-09T13:49:12;48.74;42.47;58.24;;
59284;Laerm;45056;47.602;9.886;2023-10-09T13:51:43;50.21;42.65;59.49;;
59284;Laerm;45056;47.602;9.886;2023-10-09T13:54:11;50.96;42.59;62.64;;
59284;Laerm;45056;47.602;9.886;2023-10-09T13:56:47;48.15;41.61;59.49;;
59284;Laerm;45056;47.602;9.886;2023-10-09T13:59:20;48.29;41.75;56.70;;
59284;Laerm;45056;47.602;9.886;2023-10-09T14:01:49;50.15;43.04;58.53;;
59284;Laerm;45056;47.602;9.886;2023-10-09T14:04:17;49.21;42.22;66.43;;
59284;Laerm;45056;47.602;9.886;2023-10-09T14:06:47;50.18;42.16;64.23;;
59284;Laerm;45056;47.602;9.886;2023-10-09T14:09:15;50.32;41.06;63.84;;
59284;Laerm;45056;47.602;9.886;2023-10-09T14:11:59;47.31;42.09;56.87;;
59284;Laerm;45056;47.602;9.886;2023-10-09T14:14:35;49.72;42.03;67.39;;
59284;Laerm;45056;47.602;9.886;2023-10-09T14:17:05;49.11;41.61;57.71;;
59284;Laerm;45056;47.602;9.886;2023-10-09T14:19:39;49.86;42.16;65.65;;
59284;Laerm;45056;47.602;9.886;2023-10-09T14:22:15;49.99;41.89;56.84;;
59284;Laerm;45056;47.602;9.886;2023-10-09T14:24:43;50.29;43.14;59.18;;
59284;Laerm;45056;47.602;9.886;2023-10-09T14:27:12;48.75;42.88;62.78;;
59284;Laerm;45056;47.602;9.886;2023-10-09T14:29:44;49.23;42.53;58.57;;
59284;Laerm;45056;47.602;9.886;2023-10-09T14:32:13;49.72;42.65;61.10;;